Lackland Air Force Base (Kelly Field Annex) Airport San Antonio US
ICAO: KSKF
IATA: SKF
Category: Medium
Scheduled Services: No

Elevation: 691 ft
TransAlt. 18000 ft.

Airport Communications:
SAN ANTONIO APP:118.05
ATIS:120.45
SAN ANTONIO DEP:125.7
GND:121.8
PMSV METRO:23.98
AFRC COMD POST:143.8
PTD:130.65
KELLY TWR:124.3

KSKF Zoom In..

If you have problems with the map follow the link
https://www.worldairports.se/pages/airport.php?
ICAO=KSKF

Runways:

(A) RW 15 length 11550 ft width 300 ft
ILS 110.10 / hdg 155

(B) RW 33 length 11550 ft width 300 ft
ILS 110.70 / hdg 335

Location; KSKF
Day. 08 / Time. 05.56 Zulu
* Altimeter: 30.12
* Temperature: 11° c. 51.8°f.
* Wind from: 160° Speed 03 kn.
Dewpoint: 08° c.
Visibility: 10 Statute Miles.
Clouds: Clear (automated report).

KSKF 080556Z AUTO 16003KT 10SM CLR 11/08 A3012 RMK AO2 SLP198 T01070078 10107 20095 402120083


Wind From 160°
Speed 03 kn.

 
 
jpsmedia worldairports.se 2019   terms of use